sensor_id;sensor_type;location;lat;lon;timestamp;P1;durP1;ratioP1;P2;durP2;ratioP2
58238;SDS011;44037;55.638;37.356;2023-05-10T00:01:00;10.45;;;5.70;;
58238;SDS011;44037;55.638;37.356;2023-05-10T00:03:27;15.65;;;7.18;;
58238;SDS011;44037;55.638;37.356;2023-05-10T00:05:56;10.27;;;6.32;;
58238;SDS011;44037;55.638;37.356;2023-05-10T00:08:23;11.02;;;6.28;;
58238;SDS011;44037;55.638;37.356;2023-05-10T00:10:50;12.63;;;6.68;;
58238;SDS011;44037;55.638;37.356;2023-05-10T00:13:18;9.30;;;4.95;;
58238;SDS011;44037;55.638;37.356;2023-05-10T00:15:46;10.38;;;7.65;;
58238;SDS011;44037;55.638;37.356;2023-05-10T00:18:13;13.35;;;7.80;;
58238;SDS011;44037;55.638;37.356;2023-05-10T00:20:40;11.52;;;6.60;;
58238;SDS011;44037;55.638;37.356;2023-05-10T00:23:08;9.48;;;6.38;;
58238;SDS011;44037;55.638;37.356;2023-05-10T00:25:35;10.73;;;6.53;;
58238;SDS011;44037;55.638;37.356;2023-05-10T00:28:03;9.77;;;6.43;;
58238;SDS011;44037;55.638;37.356;2023-05-10T00:30:30;6.95;;;4.78;;
58238;SDS011;44037;55.638;37.356;2023-05-10T00:32:57;9.40;;;5.10;;
58238;SDS011;44037;55.638;37.356;2023-05-10T00:35:24;10.13;;;4.85;;
58238;SDS011;44037;55.638;37.356;2023-05-10T00:37:52;5.90;;;4.07;;
58238;SDS011;44037;55.638;37.356;2023-05-10T00:40:20;7.75;;;3.72;;
58238;SDS011;44037;55.638;37.356;2023-05-10T00:42:47;6.78;;;3.35;;
58238;SDS011;44037;55.638;37.356;2023-05-10T00:45:14;7.57;;;3.88;;
58238;SDS011;44037;55.638;37.356;2023-05-10T00:47:41;6.05;;;3.75;;
58238;SDS011;44037;55.638;37.356;2023-05-10T00:50:09;3.90;;;3.22;;
58238;SDS011;44037;55.638;37.356;2023-05-10T00:52:36;6.65;;;3.65;;
58238;SDS011;44037;55.638;37.356;2023-05-10T00:55:04;8.48;;;4.65;;
58238;SDS011;44037;55.638;37.356;2023-05-10T00:57:34;8.90;;;4.68;;
58238;SDS011;44037;55.638;37.356;2023-05-10T01:00:01;9.75;;;4.93;;
58238;SDS011;44037;55.638;37.356;2023-05-10T01:02:31;7.78;;;4.10;;
58238;SDS011;44037;55.638;37.356;2023-05-10T01:05:01;7.93;;;4.85;;
58238;SDS011;44037;55.638;37.356;2023-05-10T01:07:30;8.25;;;4.35;;
58238;SDS011;44037;55.638;37.356;2023-05-10T01:09:57;9.05;;;4.95;;
58238;SDS011;44037;55.638;37.356;2023-05-10T01:12:25;8.65;;;4.32;;
58238;SDS011;44037;55.638;37.356;2023-05-10T01:14:54;10.00;;;4.65;;
58238;SDS011;44037;55.638;37.356;2023-05-10T01:17:21;8.90;;;4.00;;
58238;SDS011;44037;55.638;37.356;2023-05-10T01:19:49;7.88;;;4.60;;
58238;SDS011;44037;55.638;37.356;2023-05-10T01:22:22;8.23;;;4.68;;
58238;SDS011;44037;55.638;37.356;2023-05-10T01:28:47;8.95;;;4.32;;
58238;SDS011;44037;55.638;37.356;2023-05-10T01:32:03;8.95;;;3.75;;
58238;SDS011;44037;55.638;37.356;2023-05-10T01:34:42;7.07;;;3.90;;
58238;SDS011;44037;55.638;37.356;2023-05-10T01:37:19;5.75;;;3.88;;
58238;SDS011;44037;55.638;37.356;2023-05-10T01:39:49;8.20;;;4.60;;
58238;SDS011;44037;55.638;37.356;2023-05-10T01:42:23;8.23;;;3.88;;
58238;SDS011;44037;55.638;37.356;2023-05-10T01:44:58;7.43;;;5.03;;
58238;SDS011;44037;55.638;37.356;2023-05-10T01:47:34;8.80;;;4.60;;
58238;SDS011;44037;55.638;37.356;2023-05-10T01:50:06;5.35;;;3.80;;
58238;SDS011;44037;55.638;37.356;2023-05-10T01:52:41;6.80;;;3.95;;
58238;SDS011;44037;55.638;37.356;2023-05-10T01:55:13;7.28;;;4.90;;
58238;SDS011;44037;55.638;37.356;2023-05-10T01:57:43;9.52;;;4.22;;
58238;SDS011;44037;55.638;37.356;2023-05-10T02:00:13;7.57;;;3.63;;
58238;SDS011;44037;55.638;37.356;2023-05-10T02:02:44;5.90;;;4.30;;
58238;SDS011;44037;55.638;37.356;2023-05-10T02:05:14;11.52;;;4.78;;
58238;SDS011;44037;55.638;37.356;2023-05-10T02:07:42;7.53;;;4.22;;
58238;SDS011;44037;55.638;37.356;2023-05-10T02:10:11;9.38;;;4.78;;
58238;SDS011;44037;55.638;37.356;2023-05-10T02:12:41;5.57;;;4.30;;
58238;SDS011;44037;55.638;37.356;2023-05-10T02:15:10;11.48;;;5.80;;
58238;SDS011;44037;55.638;37.356;2023-05-10T02:17:39;9.88;;;4.75;;
58238;SDS011;44037;55.638;37.356;2023-05-10T02:20:10;14.65;;;5.63;;
58238;SDS011;44037;55.638;37.356;2023-05-10T02:22:41;11.25;;;4.47;;
58238;SDS011;44037;55.638;37.356;2023-05-10T02:25:09;8.27;;;4.05;;
58238;SDS011;44037;55.638;37.356;2023-05-10T02:27:39;8.32;;;4.65;;
58238;SDS011;44037;55.638;37.356;2023-05-10T02:30:10;7.20;;;4.63;;
58238;SDS011;44037;55.638;37.356;2023-05-10T02:32:38;7.88;;;4.60;;
58238;SDS011;44037;55.638;37.356;2023-05-10T02:35:06;8.93;;;4.50;;
58238;SDS011;44037;55.638;37.356;2023-05-10T02:37:36;6.78;;;4.05;;
58238;SDS011;44037;55.638;37.356;2023-05-10T02:40:05;7.82;;;4.70;;
58238;SDS011;44037;55.638;37.356;2023-05-10T02:42:35;7.47;;;3.88;;
58238;SDS011;44037;55.638;37.356;2023-05-10T02:45:05;6.00;;;4.50;;
58238;SDS011;44037;55.638;37.356;2023-05-10T02:47:36;8.38;;;4.13;;
58238;SDS011;44037;55.638;37.356;2023-05-10T02:50:04;8.77;;;4.30;;
58238;SDS011;44037;55.638;37.356;2023-05-10T02:52:38;7.55;;;4.78;;
58238;SDS011;44037;55.638;37.356;2023-05-10T02:55:07;9.13;;;5.00;;
58238;SDS011;44037;55.638;37.356;2023-05-10T02:57:37;9.75;;;4.55;;
58238;SDS011;44037;55.638;37.356;2023-05-10T03:00:07;7.07;;;3.75;;
58238;SDS011;44037;55.638;37.356;2023-05-10T03:02:35;25.08;;;12.98;;
58238;SDS011;44037;55.638;37.356;2023-05-10T03:05:03;13.32;;;6.55;;
58238;SDS011;44037;55.638;37.356;2023-05-10T03:07:30;11.05;;;5.97;;
58238;SDS011;44037;55.638;37.356;2023-05-10T03:10:00;10.40;;;5.13;;
58238;SDS011;44037;55.638;37.356;2023-05-10T03:12:32;13.23;;;4.93;;
58238;SDS011;44037;55.638;37.356;2023-05-10T03:15:11;8.73;;;4.68;;
58238;SDS011;44037;55.638;37.356;2023-05-10T03:17:41;10.00;;;5.25;;
58238;SDS011;44037;55.638;37.356;2023-05-10T03:20:20;13.23;;;5.28;;
58238;SDS011;44037;55.638;37.356;2023-05-10T03:22:51;9.02;;;5.38;;
58238;SDS011;44037;55.638;37.356;2023-05-10T03:25:23;14.82;;;5.28;;
58238;SDS011;44037;55.638;37.356;2023-05-10T03:27:51;8.80;;;4.75;;
58238;SDS011;44037;55.638;37.356;2023-05-10T03:30:19;13.43;;;5.20;;
58238;SDS011;44037;55.638;37.356;2023-05-10T03:32:47;10.52;;;4.28;;
58238;SDS011;44037;55.638;37.356;2023-05-10T03:35:14;9.65;;;4.32;;
58238;SDS011;44037;55.638;37.356;2023-05-10T03:37:41;7.55;;;3.80;;
58238;SDS011;44037;55.638;37.356;2023-05-10T03:40:08;9.57;;;4.10;;
58238;SDS011;44037;55.638;37.356;2023-05-10T03:42:37;8.18;;;4.38;;
58238;SDS011;44037;55.638;37.356;2023-05-10T03:45:04;7.93;;;4.25;;
58238;SDS011;44037;55.638;37.356;2023-05-10T03:47:32;10.43;;;4.57;;
58238;SDS011;44037;55.638;37.356;2023-05-10T03:49:59;13.27;;;4.55;;
58238;SDS011;44037;55.638;37.356;2023-05-10T03:52:31;7.47;;;4.88;;
58238;SDS011;44037;55.638;37.356;2023-05-10T03:55:04;8.18;;;4.90;;
58238;SDS011;44037;55.638;37.356;2023-05-10T03:57:32;10.18;;;5.80;;
58238;SDS011;44037;55.638;37.356;2023-05-10T04:00:01;9.45;;;3.92;;
58238;SDS011;44037;55.638;37.356;2023-05-10T04:02:32;10.32;;;5.05;;
58238;SDS011;44037;55.638;37.356;2023-05-10T04:04:59;8.40;;;4.60;;
58238;SDS011;44037;55.638;37.356;2023-05-10T04:07:26;8.00;;;4.05;;
58238;SDS011;44037;55.638;37.356;2023-05-10T04:09:58;7.53;;;4.03;;
58238;SDS011;44037;55.638;37.356;2023-05-10T04:12:25;7.13;;;3.97;;
58238;SDS011;44037;55.638;37.356;2023-05-10T04:14:52;9.57;;;4.80;;
58238;SDS011;44037;55.638;37.356;2023-05-10T04:17:21;9.48;;;4.32;;
58238;SDS011;44037;55.638;37.356;2023-05-10T04:19:51;10.02;;;4.70;;
58238;SDS011;44037;55.638;37.356;2023-05-10T04:22:25;7.15;;;3.97;;
58238;SDS011;44037;55.638;37.356;2023-05-10T04:24:55;11.60;;;4.60;;
58238;SDS011;44037;55.638;37.356;2023-05-10T04:27:22;10.00;;;4.75;;
58238;SDS011;44037;55.638;37.356;2023-05-10T04:29:49;7.38;;;4.07;;
58238;SDS011;44037;55.638;37.356;2023-05-10T04:32:16;4.63;;;3.65;;
58238;SDS011;44037;55.638;37.356;2023-05-10T04:34:46;9.95;;;4.18;;
58238;SDS011;44037;55.638;37.356;2023-05-10T04:37:14;6.20;;;3.97;;
58238;SDS011;44037;55.638;37.356;2023-05-10T04:39:41;6.97;;;4.20;;
58238;SDS011;44037;55.638;37.356;2023-05-10T04:42:08;6.53;;;3.95;;
58238;SDS011;44037;55.638;37.356;2023-05-10T04:44:36;9.90;;;3.92;;
58238;SDS011;44037;55.638;37.356;2023-05-10T04:47:04;7.82;;;4.35;;
58238;SDS011;44037;55.638;37.356;2023-05-10T04:49:31;8.77;;;4.50;;
58238;SDS011;44037;55.638;37.356;2023-05-10T04:52:03;7.50;;;3.90;;
58238;SDS011;44037;55.638;37.356;2023-05-10T04:54:35;9.68;;;4.72;;
58238;SDS011;44037;55.638;37.356;2023-05-10T04:57:25;9.48;;;4.53;;
58238;SDS011;44037;55.638;37.356;2023-05-10T04:59:58;8.25;;;4.07;;
58238;SDS011;44037;55.638;37.356;2023-05-10T05:02:30;8.25;;;4.13;;
58238;SDS011;44037;55.638;37.356;2023-05-10T05:05:02;9.25;;;3.67;;
58238;SDS011;44037;55.638;37.356;2023-05-10T05:07:37;7.10;;;3.67;;
58238;SDS011;44037;55.638;37.356;2023-05-10T05:10:11;9.18;;;3.63;;
58238;SDS011;44037;55.638;37.356;2023-05-10T05:12:38;7.95;;;4.38;;
58238;SDS011;44037;55.638;37.356;2023-05-10T05:15:05;5.93;;;3.75;;
58238;SDS011;44037;55.638;37.356;2023-05-10T05:17:34;8.35;;;3.88;;
58238;SDS011;44037;55.638;37.356;2023-05-10T05:20:01;5.95;;;3.88;;
58238;SDS011;44037;55.638;37.356;2023-05-10T05:22:30;12.57;;;3.60;;
58238;SDS011;44037;55.638;37.356;2023-05-10T05:24:58;9.38;;;3.38;;
58238;SDS011;44037;55.638;37.356;2023-05-10T05:27:32;6.10;;;3.38;;
58238;SDS011;44037;55.638;37.356;2023-05-10T05:29:59;9.40;;;3.90;;
58238;SDS011;44037;55.638;37.356;2023-05-10T05:32:27;6.75;;;4.18;;
58238;SDS011;44037;55.638;37.356;2023-05-10T05:34:54;5.95;;;3.13;;
58238;SDS011;44037;55.638;37.356;2023-05-10T05:37:21;9.77;;;3.88;;
58238;SDS011;44037;55.638;37.356;2023-05-10T05:39:49;7.70;;;3.05;;
58238;SDS011;44037;55.638;37.356;2023-05-10T05:42:18;7.03;;;2.72;;
58238;SDS011;44037;55.638;37.356;2023-05-10T05:44:45;8.02;;;3.67;;
58238;SDS011;44037;55.638;37.356;2023-05-10T05:47:13;10.18;;;3.67;;
58238;SDS011;44037;55.638;37.356;2023-05-10T05:49:40;7.70;;;3.63;;
58238;SDS011;44037;55.638;37.356;2023-05-10T05:52:07;5.93;;;2.97;;
58238;SDS011;44037;55.638;37.356;2023-05-10T05:54:34;6.10;;;3.17;;
58238;SDS011;44037;55.638;37.356;2023-05-10T05:57:01;11.48;;;3.65;;
58238;SDS011;44037;55.638;37.356;2023-05-10T05:59:30;5.50;;;2.80;;
58238;SDS011;44037;55.638;37.356;2023-05-10T06:01:57;7.15;;;2.75;;
58238;SDS011;44037;55.638;37.356;2023-05-10T06:04:24;7.10;;;2.60;;
58238;SDS011;44037;55.638;37.356;2023-05-10T06:06:51;6.70;;;2.25;;
58238;SDS011;44037;55.638;37.356;2023-05-10T06:09:21;5.70;;;2.22;;
58238;SDS011;44037;55.638;37.356;2023-05-10T06:11:49;4.85;;;2.08;;
58238;SDS011;44037;55.638;37.356;2023-05-10T06:14:16;4.75;;;2.22;;
58238;SDS011;44037;55.638;37.356;2023-05-10T06:16:45;4.05;;;2.05;;
58238;SDS011;44037;55.638;37.356;2023-05-10T06:19:12;6.30;;;1.70;;
58238;SDS011;44037;55.638;37.356;2023-05-10T06:21:39;5.47;;;2.05;;
58238;SDS011;44037;55.638;37.356;2023-05-10T06:24:06;3.85;;;1.73;;
58238;SDS011;44037;55.638;37.356;2023-05-10T06:26:34;6.70;;;1.50;;
58238;SDS011;44037;55.638;37.356;2023-05-10T06:29:01;2.72;;;1.80;;
58238;SDS011;44037;55.638;37.356;2023-05-10T06:31:28;5.45;;;2.17;;
58238;SDS011;44037;55.638;37.356;2023-05-10T06:33:57;7.25;;;1.90;;
58238;SDS011;44037;55.638;37.356;2023-05-10T06:36:24;3.70;;;1.38;;
58238;SDS011;44037;55.638;37.356;2023-05-10T06:38:52;5.32;;;1.88;;
58238;SDS011;44037;55.638;37.356;2023-05-10T06:41:19;3.17;;;1.15;;
58238;SDS011;44037;55.638;37.356;2023-05-10T06:43:46;2.75;;;1.85;;
58238;SDS011;44037;55.638;37.356;2023-05-10T06:46:14;5.32;;;1.70;;
58238;SDS011;44037;55.638;37.356;2023-05-10T06:48:41;4.28;;;2.08;;
58238;SDS011;44037;55.638;37.356;2023-05-10T06:51:09;5.03;;;1.40;;
58238;SDS011;44037;55.638;37.356;2023-05-10T06:53:36;4.05;;;1.80;;
58238;SDS011;44037;55.638;37.356;2023-05-10T06:56:04;8.85;;;2.13;;
58238;SDS011;44037;55.638;37.356;2023-05-10T06:58:31;11.57;;;2.05;;
58238;SDS011;44037;55.638;37.356;2023-05-10T07:01:01;5.50;;;1.73;;
58238;SDS011;44037;55.638;37.356;2023-05-10T07:03:29;4.65;;;1.90;;
58238;SDS011;44037;55.638;37.356;2023-05-10T07:05:59;3.28;;;1.50;;
58238;SDS011;44037;55.638;37.356;2023-05-10T07:08:30;4.72;;;1.80;;
58238;SDS011;44037;55.638;37.356;2023-05-10T07:11:00;3.17;;;1.65;;
58238;SDS011;44037;55.638;37.356;2023-05-10T07:13:29;2.63;;;1.67;;
58238;SDS011;44037;55.638;37.356;2023-05-10T07:15:57;4.18;;;1.80;;
58238;SDS011;44037;55.638;37.356;2023-05-10T07:18:24;4.82;;;1.77;;
58238;SDS011;44037;55.638;37.356;2023-05-10T07:20:51;2.55;;;1.60;;
58238;SDS011;44037;55.638;37.356;2023-05-10T07:23:19;4.18;;;1.67;;
58238;SDS011;44037;55.638;37.356;2023-05-10T07:25:48;2.90;;;1.85;;
58238;SDS011;44037;55.638;37.356;2023-05-10T07:28:17;4.20;;;1.52;;
58238;SDS011;44037;55.638;37.356;2023-05-10T07:30:45;2.95;;;1.50;;
58238;SDS011;44037;55.638;37.356;2023-05-10T07:33:12;2.92;;;1.77;;
58238;SDS011;44037;55.638;37.356;2023-05-10T07:35:40;3.15;;;1.70;;
58238;SDS011;44037;55.638;37.356;2023-05-10T07:38:08;4.13;;;2.33;;
58238;SDS011;44037;55.638;37.356;2023-05-10T07:40:36;4.82;;;1.55;;
58238;SDS011;44037;55.638;37.356;2023-05-10T07:43:05;2.03;;;1.35;;
58238;SDS011;44037;55.638;37.356;2023-05-10T07:45:32;1.92;;;1.50;;
58238;SDS011;44037;55.638;37.356;2023-05-10T07:48:00;2.70;;;1.30;;
58238;SDS011;44037;55.638;37.356;2023-05-10T07:50:27;3.20;;;1.48;;
58238;SDS011;44037;55.638;37.356;2023-05-10T07:52:54;2.28;;;1.60;;
58238;SDS011;44037;55.638;37.356;2023-05-10T07:55:21;5.40;;;1.50;;
58238;SDS011;44037;55.638;37.356;2023-05-10T07:57:48;2.85;;;1.52;;
58238;SDS011;44037;55.638;37.356;2023-05-10T08:00:18;1.70;;;1.40;;
58238;SDS011;44037;55.638;37.356;2023-05-10T08:02:46;3.60;;;1.48;;
58238;SDS011;44037;55.638;37.356;2023-05-10T08:05:14;2.95;;;1.67;;
58238;SDS011;44037;55.638;37.356;2023-05-10T08:07:41;2.65;;;1.33;;
58238;SDS011;44037;55.638;37.356;2023-05-10T08:10:08;2.28;;;1.23;;
58238;SDS011;44037;55.638;37.356;2023-05-10T08:12:37;2.47;;;1.55;;
58238;SDS011;44037;55.638;37.356;2023-05-10T08:15:05;3.00;;;1.75;;
58238;SDS011;44037;55.638;37.356;2023-05-10T08:17:35;3.45;;;1.50;;
58238;SDS011;44037;55.638;37.356;2023-05-10T08:20:02;4.65;;;1.90;;
58238;SDS011;44037;55.638;37.356;2023-05-10T08:22:30;2.85;;;1.48;;
58238;SDS011;44037;55.638;37.356;2023-05-10T08:24:57;2.90;;;1.27;;
58238;SDS011;44037;55.638;37.356;2023-05-10T08:27:24;1.77;;;1.48;;
58238;SDS011;44037;55.638;37.356;2023-05-10T08:29:51;3.45;;;1.50;;
58238;SDS011;44037;55.638;37.356;2023-05-10T08:32:18;2.55;;;1.38;;
58238;SDS011;44037;55.638;37.356;2023-05-10T08:34:47;2.33;;;1.48;;
58238;SDS011;44037;55.638;37.356;2023-05-10T08:37:14;3.05;;;1.40;;
58238;SDS011;44037;55.638;37.356;2023-05-10T08:39:41;8.98;;;1.70;;
58238;SDS011;44037;55.638;37.356;2023-05-10T08:42:08;4.38;;;1.73;;
58238;SDS011;44037;55.638;37.356;2023-05-10T08:44:37;3.03;;;1.75;;
58238;SDS011;44037;55.638;37.356;2023-05-10T08:47:05;5.47;;;1.38;;
58238;SDS011;44037;55.638;37.356;2023-05-10T08:49:33;3.65;;;1.65;;
58238;SDS011;44037;55.638;37.356;2023-05-10T08:52:03;3.13;;;1.55;;
58238;SDS011;44037;55.638;37.356;2023-05-10T08:54:32;2.22;;;1.60;;
58238;SDS011;44037;55.638;37.356;2023-05-10T08:57:01;5.43;;;2.13;;
58238;SDS011;44037;55.638;37.356;2023-05-10T08:59:38;2.58;;;1.70;;
58238;SDS011;44037;55.638;37.356;2023-05-10T09:02:05;3.42;;;1.60;;
58238;SDS011;44037;55.638;37.356;2023-05-10T09:04:36;2.88;;;1.60;;
58238;SDS011;44037;55.638;37.356;2023-05-10T09:07:05;2.15;;;1.38;;
58238;SDS011;44037;55.638;37.356;2023-05-10T09:09:33;3.00;;;1.70;;
58238;SDS011;44037;55.638;37.356;2023-05-10T09:12:01;4.70;;;1.70;;
58238;SDS011;44037;55.638;37.356;2023-05-10T09:14:28;2.40;;;1.30;;
58238;SDS011;44037;55.638;37.356;2023-05-10T09:16:57;4.20;;;1.35;;
58238;SDS011;44037;55.638;37.356;2023-05-10T09:19:24;4.07;;;1.52;;
58238;SDS011;44037;55.638;37.356;2023-05-10T09:21:51;2.38;;;1.27;;
58238;SDS011;44037;55.638;37.356;2023-05-10T09:24:20;5.90;;;1.30;;
58238;SDS011;44037;55.638;37.356;2023-05-10T09:26:52;2.70;;;1.05;;
58238;SDS011;44037;55.638;37.356;2023-05-10T09:29:19;2.50;;;1.27;;
58238;SDS011;44037;55.638;37.356;2023-05-10T09:31:47;2.42;;;1.20;;
58238;SDS011;44037;55.638;37.356;2023-05-10T09:34:17;2.15;;;1.20;;
58238;SDS011;44037;55.638;37.356;2023-05-10T09:36:52;3.45;;;1.40;;
58238;SDS011;44037;55.638;37.356;2023-05-10T09:39:21;3.53;;;1.17;;
58238;SDS011;44037;55.638;37.356;2023-05-10T09:41:57;2.53;;;1.40;;
58238;SDS011;44037;55.638;37.356;2023-05-10T09:44:26;1.42;;;1.00;;
58238;SDS011;44037;55.638;37.356;2023-05-10T09:46:53;2.55;;;1.20;;
58238;SDS011;44037;55.638;37.356;2023-05-10T09:49:20;2.45;;;1.70;;
58238;SDS011;44037;55.638;37.356;2023-05-10T09:51:57;3.25;;;1.48;;
58238;SDS011;44037;55.638;37.356;2023-05-10T09:54:28;2.28;;;1.40;;
58238;SDS011;44037;55.638;37.356;2023-05-10T09:56:55;2.03;;;1.48;;
58238;SDS011;44037;55.638;37.356;2023-05-10T09:59:24;4.35;;;1.52;;
58238;SDS011;44037;55.638;37.356;2023-05-10T10:01:53;4.40;;;1.77;;
58238;SDS011;44037;55.638;37.356;2023-05-10T10:04:22;2.97;;;1.55;;
58238;SDS011;44037;55.638;37.356;2023-05-10T10:06:59;2.10;;;1.30;;
58238;SDS011;44037;55.638;37.356;2023-05-10T10:09:29;3.05;;;1.27;;
58238;SDS011;44037;55.638;37.356;2023-05-10T10:11:57;2.92;;;1.05;;
58238;SDS011;44037;55.638;37.356;2023-05-10T10:14:25;4.85;;;1.65;;
58238;SDS011;44037;55.638;37.356;2023-05-10T10:16:53;2.08;;;1.00;;
58238;SDS011;44037;55.638;37.356;2023-05-10T10:19:20;2.50;;;1.10;;
58238;SDS011;44037;55.638;37.356;2023-05-10T10:21:48;3.80;;;1.20;;
58238;SDS011;44037;55.638;37.356;2023-05-10T10:24:16;2.50;;;1.20;;
58238;SDS011;44037;55.638;37.356;2023-05-10T10:26:49;2.03;;;1.23;;
58238;SDS011;44037;55.638;37.356;2023-05-10T10:29:23;4.43;;;1.55;;
58238;SDS011;44037;55.638;37.356;2023-05-10T10:31:55;4.07;;;1.70;;
58238;SDS011;44037;55.638;37.356;2023-05-10T10:34:29;3.10;;;1.90;;
58238;SDS011;44037;55.638;37.356;2023-05-10T10:36:57;3.92;;;1.85;;
58238;SDS011;44037;55.638;37.356;2023-05-10T10:39:30;2.72;;;1.50;;
58238;SDS011;44037;55.638;37.356;2023-05-10T10:41:58;4.30;;;1.80;;
58238;SDS011;44037;55.638;37.356;2023-05-10T10:44:36;3.40;;;1.60;;
58238;SDS011;44037;55.638;37.356;2023-05-10T10:47:06;2.47;;;1.60;;
58238;SDS011;44037;55.638;37.356;2023-05-10T10:49:42;2.10;;;1.48;;
58238;SDS011;44037;55.638;37.356;2023-05-10T10:52:15;4.93;;;1.50;;
58238;SDS011;44037;55.638;37.356;2023-05-10T10:54:49;3.28;;;1.52;;
58238;SDS011;44037;55.638;37.356;2023-05-10T10:57:19;2.60;;;1.38;;
58238;SDS011;44037;55.638;37.356;2023-05-10T10:59:48;3.45;;;1.65;;
58238;SDS011;44037;55.638;37.356;2023-05-10T11:08:07;5.50;;;1.30;;
58238;SDS011;44037;55.638;37.356;2023-05-10T11:10:36;5.70;;;1.83;;
58238;SDS011;44037;55.638;37.356;2023-05-10T11:13:06;3.03;;;1.83;;
58238;SDS011;44037;55.638;37.356;2023-05-10T11:15:34;5.07;;;1.90;;
58238;SDS011;44037;55.638;37.356;2023-05-10T11:18:16;3.88;;;2.13;;
58238;SDS011;44037;55.638;37.356;2023-05-10T11:20:44;4.28;;;2.13;;
58238;SDS011;44037;55.638;37.356;2023-05-10T11:23:17;5.25;;;1.88;;
58238;SDS011;44037;55.638;37.356;2023-05-10T11:25:46;5.60;;;2.25;;
58238;SDS011;44037;55.638;37.356;2023-05-10T11:28:16;4.22;;;2.20;;
58238;SDS011;44037;55.638;37.356;2023-05-10T11:30:44;5.47;;;2.10;;
58238;SDS011;44037;55.638;37.356;2023-05-10T11:33:15;3.70;;;1.70;;
58238;SDS011;44037;55.638;37.356;2023-05-10T11:35:43;4.45;;;2.45;;
58238;SDS011;44037;55.638;37.356;2023-05-10T11:38:10;5.20;;;2.30;;
58238;SDS011;44037;55.638;37.356;2023-05-10T11:40:39;3.60;;;2.17;;
58238;SDS011;44037;55.638;37.356;2023-05-10T11:43:08;5.20;;;2.40;;
58238;SDS011;44037;55.638;37.356;2023-05-10T11:45:38;5.15;;;2.22;;
58238;SDS011;44037;55.638;37.356;2023-05-10T11:48:08;5.18;;;1.73;;
58238;SDS011;44037;55.638;37.356;2023-05-10T11:50:35;3.47;;;1.90;;
58238;SDS011;44037;55.638;37.356;2023-05-10T11:53:02;2.90;;;2.05;;
58238;SDS011;44037;55.638;37.356;2023-05-10T11:55:29;4.30;;;1.95;;
58238;SDS011;44037;55.638;37.356;2023-05-10T11:58:00;4.93;;;2.10;;
58238;SDS011;44037;55.638;37.356;2023-05-10T12:00:29;4.35;;;2.00;;
58238;SDS011;44037;55.638;37.356;2023-05-10T12:02:59;3.45;;;1.88;;
58238;SDS011;44037;55.638;37.356;2023-05-10T12:05:27;5.22;;;1.90;;
58238;SDS011;44037;55.638;37.356;2023-05-10T12:08:10;2.22;;;1.58;;
58238;SDS011;44037;55.638;37.356;2023-05-10T12:10:38;4.35;;;1.88;;
58238;SDS011;44037;55.638;37.356;2023-05-10T12:13:05;5.30;;;2.03;;
58238;SDS011;44037;55.638;37.356;2023-05-10T12:15:39;3.53;;;2.03;;
58238;SDS011;44037;55.638;37.356;2023-05-10T12:18:09;3.05;;;1.80;;
58238;SDS011;44037;55.638;37.356;2023-05-10T12:20:37;5.20;;;1.80;;
58238;SDS011;44037;55.638;37.356;2023-05-10T12:23:05;4.82;;;1.95;;
58238;SDS011;44037;55.638;37.356;2023-05-10T12:25:35;4.03;;;2.00;;
58238;SDS011;44037;55.638;37.356;2023-05-10T12:28:04;3.08;;;1.60;;
58238;SDS011;44037;55.638;37.356;2023-05-10T12:30:33;3.25;;;1.65;;
58238;SDS011;44037;55.638;37.356;2023-05-10T12:33:02;3.53;;;1.65;;
58238;SDS011;44037;55.638;37.356;2023-05-10T12:35:43;5.50;;;1.88;;
58238;SDS011;44037;55.638;37.356;2023-05-10T12:40:58;3.45;;;1.98;;
58238;SDS011;44037;55.638;37.356;2023-05-10T12:43:27;5.20;;;1.70;;
58238;SDS011;44037;55.638;37.356;2023-05-10T12:45:54;3.47;;;1.60;;
58238;SDS011;44037;55.638;37.356;2023-05-10T12:48:22;2.17;;;1.38;;
58238;SDS011;44037;55.638;37.356;2023-05-10T12:50:50;2.67;;;1.60;;
58238;SDS011;44037;55.638;37.356;2023-05-10T12:53:20;4.38;;;1.50;;
58238;SDS011;44037;55.638;37.356;2023-05-10T12:55:47;4.35;;;1.80;;
58238;SDS011;44037;55.638;37.356;2023-05-10T12:58:15;3.75;;;1.92;;
58238;SDS011;44037;55.638;37.356;2023-05-10T13:00:42;2.58;;;1.45;;
58238;SDS011;44037;55.638;37.356;2023-05-10T13:03:10;4.50;;;2.22;;
58238;SDS011;44037;55.638;37.356;2023-05-10T13:05:37;3.92;;;1.65;;
58238;SDS011;44037;55.638;37.356;2023-05-10T13:08:06;3.83;;;2.50;;
58238;SDS011;44037;55.638;37.356;2023-05-10T13:10:33;4.63;;;1.95;;
58238;SDS011;44037;55.638;37.356;2023-05-10T13:13:03;7.88;;;4.07;;
58238;SDS011;44037;55.638;37.356;2023-05-10T13:15:30;3.53;;;2.20;;
58238;SDS011;44037;55.638;37.356;2023-05-10T13:17:57;4.10;;;1.73;;
58238;SDS011;44037;55.638;37.356;2023-05-10T13:20:25;3.63;;;1.90;;
58238;SDS011;44037;55.638;37.356;2023-05-10T13:22:52;3.65;;;1.80;;
58238;SDS011;44037;55.638;37.356;2023-05-10T13:25:21;2.70;;;1.60;;
58238;SDS011;44037;55.638;37.356;2023-05-10T13:27:48;5.95;;;1.65;;
58238;SDS011;44037;55.638;37.356;2023-05-10T13:30:16;3.97;;;1.90;;
58238;SDS011;44037;55.638;37.356;2023-05-10T13:32:43;3.25;;;2.13;;
58238;SDS011;44037;55.638;37.356;2023-05-10T13:35:10;5.78;;;2.20;;
58238;SDS011;44037;55.638;37.356;2023-05-10T13:37:38;5.05;;;2.00;;
58238;SDS011;44037;55.638;37.356;2023-05-10T13:40:05;4.35;;;1.88;;
58238;SDS011;44037;55.638;37.356;2023-05-10T13:42:35;3.63;;;1.77;;
58238;SDS011;44037;55.638;37.356;2023-05-10T13:45:03;3.13;;;1.60;;
58238;SDS011;44037;55.638;37.356;2023-05-10T13:47:33;4.55;;;1.80;;
58238;SDS011;44037;55.638;37.356;2023-05-10T13:50:00;3.30;;;1.80;;
58238;SDS011;44037;55.638;37.356;2023-05-10T13:52:32;4.50;;;1.98;;
58238;SDS011;44037;55.638;37.356;2023-05-10T13:54:59;3.95;;;1.75;;
58238;SDS011;44037;55.638;37.356;2023-05-10T13:57:27;2.88;;;1.63;;
58238;SDS011;44037;55.638;37.356;2023-05-10T13:59:56;6.72;;;2.03;;
58238;SDS011;44037;55.638;37.356;2023-05-10T14:02:24;3.88;;;2.35;;
58238;SDS011;44037;55.638;37.356;2023-05-10T14:04:52;3.25;;;2.03;;
58238;SDS011;44037;55.638;37.356;2023-05-10T14:07:19;7.18;;;1.85;;
58238;SDS011;44037;55.638;37.356;2023-05-10T14:09:46;2.90;;;1.70;;
58238;SDS011;44037;55.638;37.356;2023-05-10T14:12:14;8.40;;;5.28;;
58238;SDS011;44037;55.638;37.356;2023-05-10T14:14:41;8.05;;;2.90;;
58238;SDS011;44037;55.638;37.356;2023-05-10T14:17:10;4.65;;;2.60;;
58238;SDS011;44037;55.638;37.356;2023-05-10T14:19:37;4.30;;;2.45;;
58238;SDS011;44037;55.638;37.356;2023-05-10T14:22:04;4.15;;;1.92;;
58238;SDS011;44037;55.638;37.356;2023-05-10T14:24:31;3.42;;;1.73;;
58238;SDS011;44037;55.638;37.356;2023-05-10T14:26:58;9.02;;;2.90;;
58238;SDS011;44037;55.638;37.356;2023-05-10T14:29:25;5.70;;;2.65;;
58238;SDS011;44037;55.638;37.356;2023-05-10T14:31:53;3.30;;;1.77;;
58238;SDS011;44037;55.638;37.356;2023-05-10T14:34:21;3.10;;;1.77;;
58238;SDS011;44037;55.638;37.356;2023-05-10T14:36:48;7.70;;;1.98;;
58238;SDS011;44037;55.638;37.356;2023-05-10T14:39:16;6.63;;;1.88;;
58238;SDS011;44037;55.638;37.356;2023-05-10T14:41:43;4.53;;;1.95;;
58238;SDS011;44037;55.638;37.356;2023-05-10T14:44:11;4.18;;;1.88;;
58238;SDS011;44037;55.638;37.356;2023-05-10T14:46:38;3.35;;;1.80;;
58238;SDS011;44037;55.638;37.356;2023-05-10T14:49:07;6.70;;;2.40;;
58238;SDS011;44037;55.638;37.356;2023-05-10T14:51:35;5.68;;;2.25;;
58238;SDS011;44037;55.638;37.356;2023-05-10T14:54:03;4.07;;;1.55;;
58238;SDS011;44037;55.638;37.356;2023-05-10T14:56:31;4.85;;;1.58;;